sensor_id;sensor_type;location;lat;lon;timestamp;P1;durP1;ratioP1;P2;durP2;ratioP2
75450;SDS011;64029;48.244;9.188;2023-06-10T00:00:54;7.40;;;6.70;;
75450;SDS011;64029;48.244;9.188;2023-06-10T00:03:21;7.20;;;6.53;;
75450;SDS011;64029;48.244;9.188;2023-06-10T00:05:50;8.40;;;7.50;;
75450;SDS011;64029;48.244;9.188;2023-06-10T00:08:17;8.70;;;7.90;;
75450;SDS011;64029;48.244;9.188;2023-06-10T00:10:44;11.13;;;7.03;;
75450;SDS011;64029;48.244;9.188;2023-06-10T00:13:11;8.53;;;7.43;;
75450;SDS011;64029;48.244;9.188;2023-06-10T00:15:38;8.13;;;7.33;;
75450;SDS011;64029;48.244;9.188;2023-06-10T00:18:05;7.73;;;6.93;;
75450;SDS011;64029;48.244;9.188;2023-06-10T00:20:35;10.97;;;8.03;;
75450;SDS011;64029;48.244;9.188;2023-06-10T00:23:04;8.37;;;7.13;;
75450;SDS011;64029;48.244;9.188;2023-06-10T00:25:33;9.23;;;7.30;;
75450;SDS011;64029;48.244;9.188;2023-06-10T00:28:00;8.00;;;7.20;;
75450;SDS011;64029;48.244;9.188;2023-06-10T00:30:27;7.70;;;6.93;;
75450;SDS011;64029;48.244;9.188;2023-06-10T00:32:53;7.50;;;6.80;;
75450;SDS011;64029;48.244;9.188;2023-06-10T00:35:20;7.67;;;6.97;;
75450;SDS011;64029;48.244;9.188;2023-06-10T00:37:47;7.33;;;6.63;;
75450;SDS011;64029;48.244;9.188;2023-06-10T00:40:15;7.40;;;6.57;;
75450;SDS011;64029;48.244;9.188;2023-06-10T00:42:42;9.17;;;6.90;;
75450;SDS011;64029;48.244;9.188;2023-06-10T00:45:09;8.40;;;7.60;;
75450;SDS011;64029;48.244;9.188;2023-06-10T00:47:36;8.23;;;7.20;;
75450;SDS011;64029;48.244;9.188;2023-06-10T00:50:03;7.30;;;6.60;;
75450;SDS011;64029;48.244;9.188;2023-06-10T00:52:32;8.10;;;7.30;;
75450;SDS011;64029;48.244;9.188;2023-06-10T00:55:01;7.83;;;7.03;;
75450;SDS011;64029;48.244;9.188;2023-06-10T00:57:29;7.77;;;6.90;;
75450;SDS011;64029;48.244;9.188;2023-06-10T00:59:57;9.37;;;6.57;;
75450;SDS011;64029;48.244;9.188;2023-06-10T01:02:24;7.40;;;6.70;;
75450;SDS011;64029;48.244;9.188;2023-06-10T01:04:51;8.77;;;7.77;;
75450;SDS011;64029;48.244;9.188;2023-06-10T01:07:20;10.00;;;6.60;;
75450;SDS011;64029;48.244;9.188;2023-06-10T01:09:52;8.63;;;6.80;;
75450;SDS011;64029;48.244;9.188;2023-06-10T01:15:13;6.97;;;6.37;;
75450;SDS011;64029;48.244;9.188;2023-06-10T01:17:53;8.83;;;8.00;;
75450;SDS011;64029;48.244;9.188;2023-06-10T01:20:20;8.87;;;8.07;;
75450;SDS011;64029;48.244;9.188;2023-06-10T01:22:49;7.60;;;6.90;;
75450;SDS011;64029;48.244;9.188;2023-06-10T01:25:15;7.20;;;6.50;;
75450;SDS011;64029;48.244;9.188;2023-06-10T01:27:43;8.37;;;7.67;;
75450;SDS011;64029;48.244;9.188;2023-06-10T01:30:15;8.53;;;7.77;;
75450;SDS011;64029;48.244;9.188;2023-06-10T01:32:48;9.33;;;7.20;;
75450;SDS011;64029;48.244;9.188;2023-06-10T01:35:17;9.63;;;7.33;;
75450;SDS011;64029;48.244;9.188;2023-06-10T01:37:49;7.83;;;7.03;;
75450;SDS011;64029;48.244;9.188;2023-06-10T01:40:18;9.30;;;8.30;;
75450;SDS011;64029;48.244;9.188;2023-06-10T01:42:46;8.33;;;7.20;;
75450;SDS011;64029;48.244;9.188;2023-06-10T01:45:13;8.27;;;7.20;;
75450;SDS011;64029;48.244;9.188;2023-06-10T01:47:40;8.03;;;7.23;;
75450;SDS011;64029;48.244;9.188;2023-06-10T01:50:07;9.10;;;7.97;;
75450;SDS011;64029;48.244;9.188;2023-06-10T01:52:34;8.13;;;7.33;;
75450;SDS011;64029;48.244;9.188;2023-06-10T01:55:04;8.30;;;7.50;;
75450;SDS011;64029;48.244;9.188;2023-06-10T01:57:31;8.53;;;7.73;;
75450;SDS011;64029;48.244;9.188;2023-06-10T01:59:58;8.20;;;7.50;;
75450;SDS011;64029;48.244;9.188;2023-06-10T02:02:25;7.87;;;7.17;;
75450;SDS011;64029;48.244;9.188;2023-06-10T02:04:51;11.60;;;7.93;;
75450;SDS011;64029;48.244;9.188;2023-06-10T02:07:18;7.83;;;7.13;;
75450;SDS011;64029;48.244;9.188;2023-06-10T02:09:45;8.63;;;7.40;;
75450;SDS011;64029;48.244;9.188;2023-06-10T02:12:13;9.03;;;8.03;;
75450;SDS011;64029;48.244;9.188;2023-06-10T02:14:40;8.90;;;8.00;;
75450;SDS011;64029;48.244;9.188;2023-06-10T02:17:07;9.47;;;8.20;;
75450;SDS011;64029;48.244;9.188;2023-06-10T02:19:37;9.03;;;7.97;;
75450;SDS011;64029;48.244;9.188;2023-06-10T02:22:07;8.50;;;7.70;;
75450;SDS011;64029;48.244;9.188;2023-06-10T02:24:35;8.73;;;7.93;;
75450;SDS011;64029;48.244;9.188;2023-06-10T02:27:03;8.60;;;7.70;;
75450;SDS011;64029;48.244;9.188;2023-06-10T02:29:33;9.67;;;8.67;;
75450;SDS011;64029;48.244;9.188;2023-06-10T02:32:00;8.73;;;8.00;;
75450;SDS011;64029;48.244;9.188;2023-06-10T02:34:27;9.23;;;8.33;;
75450;SDS011;64029;48.244;9.188;2023-06-10T02:36:54;8.87;;;8.07;;
75450;SDS011;64029;48.244;9.188;2023-06-10T02:39:21;8.90;;;8.00;;
75450;SDS011;64029;48.244;9.188;2023-06-10T02:41:48;9.77;;;8.87;;
75450;SDS011;64029;48.244;9.188;2023-06-10T02:44:15;8.83;;;8.03;;
75450;SDS011;64029;48.244;9.188;2023-06-10T02:46:43;10.50;;;8.90;;
75450;SDS011;64029;48.244;9.188;2023-06-10T02:49:10;8.83;;;8.03;;
75450;SDS011;64029;48.244;9.188;2023-06-10T02:51:37;9.43;;;8.53;;
75450;SDS011;64029;48.244;9.188;2023-06-10T02:54:04;8.93;;;8.03;;
75450;SDS011;64029;48.244;9.188;2023-06-10T02:56:31;11.27;;;8.50;;
75450;SDS011;64029;48.244;9.188;2023-06-10T02:58:58;12.80;;;9.13;;
75450;SDS011;64029;48.244;9.188;2023-06-10T03:01:25;12.93;;;8.33;;
75450;SDS011;64029;48.244;9.188;2023-06-10T03:03:53;9.30;;;8.40;;
75450;SDS011;64029;48.244;9.188;2023-06-10T03:06:21;12.00;;;8.63;;
75450;SDS011;64029;48.244;9.188;2023-06-10T03:08:50;9.97;;;8.40;;
75450;SDS011;64029;48.244;9.188;2023-06-10T03:11:16;9.47;;;8.07;;
75450;SDS011;64029;48.244;9.188;2023-06-10T03:13:44;9.10;;;8.20;;
75450;SDS011;64029;48.244;9.188;2023-06-10T03:16:11;9.07;;;8.20;;
75450;SDS011;64029;48.244;9.188;2023-06-10T03:18:38;8.97;;;8.03;;
75450;SDS011;64029;48.244;9.188;2023-06-10T03:21:07;9.80;;;8.30;;
75450;SDS011;64029;48.244;9.188;2023-06-10T03:23:34;12.83;;;8.93;;
75450;SDS011;64029;48.244;9.188;2023-06-10T03:26:01;9.20;;;8.33;;
75450;SDS011;64029;48.244;9.188;2023-06-10T03:28:29;9.87;;;8.30;;
75450;SDS011;64029;48.244;9.188;2023-06-10T03:30:56;8.70;;;7.80;;
75450;SDS011;64029;48.244;9.188;2023-06-10T03:33:23;11.00;;;8.53;;
75450;SDS011;64029;48.244;9.188;2023-06-10T03:35:51;9.17;;;8.30;;
75450;SDS011;64029;48.244;9.188;2023-06-10T03:38:19;9.47;;;7.90;;
75450;SDS011;64029;48.244;9.188;2023-06-10T03:40:46;10.73;;;8.10;;
75450;SDS011;64029;48.244;9.188;2023-06-10T03:43:13;9.50;;;8.60;;
75450;SDS011;64029;48.244;9.188;2023-06-10T03:45:40;9.20;;;8.23;;
75450;SDS011;64029;48.244;9.188;2023-06-10T03:48:07;8.40;;;7.60;;
75450;SDS011;64029;48.244;9.188;2023-06-10T03:50:34;9.47;;;8.47;;
75450;SDS011;64029;48.244;9.188;2023-06-10T03:53:01;8.80;;;7.90;;
75450;SDS011;64029;48.244;9.188;2023-06-10T03:55:29;9.73;;;8.10;;
75450;SDS011;64029;48.244;9.188;2023-06-10T03:57:56;9.30;;;8.03;;
75450;SDS011;64029;48.244;9.188;2023-06-10T04:00:24;10.23;;;8.87;;
75450;SDS011;64029;48.244;9.188;2023-06-10T04:02:50;9.40;;;8.50;;
75450;SDS011;64029;48.244;9.188;2023-06-10T04:05:17;9.33;;;8.33;;
75450;SDS011;64029;48.244;9.188;2023-06-10T04:07:46;11.80;;;8.23;;
75450;SDS011;64029;48.244;9.188;2023-06-10T04:10:13;9.30;;;8.40;;
75450;SDS011;64029;48.244;9.188;2023-06-10T04:12:42;9.43;;;8.07;;
75450;SDS011;64029;48.244;9.188;2023-06-10T04:15:09;10.23;;;9.10;;
75450;SDS011;64029;48.244;9.188;2023-06-10T04:17:36;9.53;;;8.60;;
75450;SDS011;64029;48.244;9.188;2023-06-10T04:20:03;9.37;;;8.40;;
75450;SDS011;64029;48.244;9.188;2023-06-10T04:22:33;9.47;;;8.53;;
75450;SDS011;64029;48.244;9.188;2023-06-10T04:24:59;11.60;;;8.57;;
75450;SDS011;64029;48.244;9.188;2023-06-10T04:27:26;10.17;;;9.13;;
75450;SDS011;64029;48.244;9.188;2023-06-10T04:29:54;10.17;;;9.07;;
75450;SDS011;64029;48.244;9.188;2023-06-10T04:32:21;14.10;;;9.40;;
75450;SDS011;64029;48.244;9.188;2023-06-10T04:34:48;11.33;;;9.80;;
75450;SDS011;64029;48.244;9.188;2023-06-10T04:37:15;10.63;;;9.37;;
75450;SDS011;64029;48.244;9.188;2023-06-10T04:39:42;12.90;;;10.10;;
75450;SDS011;64029;48.244;9.188;2023-06-10T04:42:09;12.20;;;10.90;;
75450;SDS011;64029;48.244;9.188;2023-06-10T04:44:35;12.90;;;10.50;;
75450;SDS011;64029;48.244;9.188;2023-06-10T04:47:05;12.03;;;9.90;;
75450;SDS011;64029;48.244;9.188;2023-06-10T04:49:32;11.33;;;9.93;;
75450;SDS011;64029;48.244;9.188;2023-06-10T04:52:00;12.17;;;10.10;;
75450;SDS011;64029;48.244;9.188;2023-06-10T04:54:29;11.40;;;10.20;;
75450;SDS011;64029;48.244;9.188;2023-06-10T04:56:57;11.33;;;10.20;;
75450;SDS011;64029;48.244;9.188;2023-06-10T04:59:24;10.90;;;9.80;;
75450;SDS011;64029;48.244;9.188;2023-06-10T05:01:51;10.87;;;9.77;;
75450;SDS011;64029;48.244;9.188;2023-06-10T05:04:19;10.97;;;9.47;;
75450;SDS011;64029;48.244;9.188;2023-06-10T05:06:46;10.63;;;9.53;;
75450;SDS011;64029;48.244;9.188;2023-06-10T05:09:13;10.73;;;9.63;;
75450;SDS011;64029;48.244;9.188;2023-06-10T05:11:40;11.13;;;9.27;;
75450;SDS011;64029;48.244;9.188;2023-06-10T05:14:07;15.47;;;10.37;;
75450;SDS011;64029;48.244;9.188;2023-06-10T05:16:34;12.30;;;9.30;;
75450;SDS011;64029;48.244;9.188;2023-06-10T05:19:01;10.73;;;9.33;;
75450;SDS011;64029;48.244;9.188;2023-06-10T05:21:29;9.87;;;8.97;;
75450;SDS011;64029;48.244;9.188;2023-06-10T05:23:56;9.57;;;8.57;;
75450;SDS011;64029;48.244;9.188;2023-06-10T05:26:23;11.20;;;9.50;;
75450;SDS011;64029;48.244;9.188;2023-06-10T05:28:50;10.93;;;9.83;;
75450;SDS011;64029;48.244;9.188;2023-06-10T05:31:17;11.40;;;10.20;;
75450;SDS011;64029;48.244;9.188;2023-06-10T05:33:44;12.50;;;9.70;;
75450;SDS011;64029;48.244;9.188;2023-06-10T05:36:11;11.30;;;9.90;;
75450;SDS011;64029;48.244;9.188;2023-06-10T05:38:39;9.77;;;8.77;;
75450;SDS011;64029;48.244;9.188;2023-06-10T05:41:06;9.37;;;8.30;;
75450;SDS011;64029;48.244;9.188;2023-06-10T05:43:33;9.73;;;8.73;;
75450;SDS011;64029;48.244;9.188;2023-06-10T05:46:00;11.30;;;9.60;;
75450;SDS011;64029;48.244;9.188;2023-06-10T05:48:26;10.13;;;9.10;;
75450;SDS011;64029;48.244;9.188;2023-06-10T05:50:53;10.20;;;9.20;;
75450;SDS011;64029;48.244;9.188;2023-06-10T05:53:20;11.50;;;10.27;;
75450;SDS011;64029;48.244;9.188;2023-06-10T05:55:48;11.17;;;10.00;;
75450;SDS011;64029;48.244;9.188;2023-06-10T05:58:16;10.00;;;8.57;;
75450;SDS011;64029;48.244;9.188;2023-06-10T06:00:43;11.53;;;10.10;;
75450;SDS011;64029;48.244;9.188;2023-06-10T06:03:10;11.87;;;9.93;;
75450;SDS011;64029;48.244;9.188;2023-06-10T06:05:37;12.53;;;9.33;;
75450;SDS011;64029;48.244;9.188;2023-06-10T06:08:03;10.67;;;9.57;;
75450;SDS011;64029;48.244;9.188;2023-06-10T06:10:30;13.27;;;9.87;;
75450;SDS011;64029;48.244;9.188;2023-06-10T06:12:59;10.90;;;9.80;;
75450;SDS011;64029;48.244;9.188;2023-06-10T06:15:26;10.73;;;9.63;;
75450;SDS011;64029;48.244;9.188;2023-06-10T06:17:53;11.97;;;10.57;;
75450;SDS011;64029;48.244;9.188;2023-06-10T06:20:21;11.47;;;10.37;;
75450;SDS011;64029;48.244;9.188;2023-06-10T06:22:48;11.67;;;9.90;;
75450;SDS011;64029;48.244;9.188;2023-06-10T06:25:15;11.60;;;9.63;;
75450;SDS011;64029;48.244;9.188;2023-06-10T06:27:42;11.60;;;9.67;;
75450;SDS011;64029;48.244;9.188;2023-06-10T06:30:10;12.03;;;9.20;;
75450;SDS011;64029;48.244;9.188;2023-06-10T06:32:37;10.27;;;9.13;;
75450;SDS011;64029;48.244;9.188;2023-06-10T06:35:04;13.80;;;9.23;;
75450;SDS011;64029;48.244;9.188;2023-06-10T06:37:33;11.00;;;9.60;;
75450;SDS011;64029;48.244;9.188;2023-06-10T06:40:00;10.20;;;8.57;;
75450;SDS011;64029;48.244;9.188;2023-06-10T06:42:27;10.10;;;9.10;;
75450;SDS011;64029;48.244;9.188;2023-06-10T06:44:53;9.27;;;8.20;;
75450;SDS011;64029;48.244;9.188;2023-06-10T06:47:22;10.10;;;8.40;;
75450;SDS011;64029;48.244;9.188;2023-06-10T06:49:49;9.10;;;8.20;;
75450;SDS011;64029;48.244;9.188;2023-06-10T06:52:15;9.37;;;8.20;;
75450;SDS011;64029;48.244;9.188;2023-06-10T06:54:42;9.03;;;8.10;;
75450;SDS011;64029;48.244;9.188;2023-06-10T06:57:09;11.00;;;8.10;;
75450;SDS011;64029;48.244;9.188;2023-06-10T06:59:36;8.97;;;8.17;;
75450;SDS011;64029;48.244;9.188;2023-06-10T07:02:03;9.03;;;8.10;;
75450;SDS011;64029;48.244;9.188;2023-06-10T07:04:31;8.87;;;7.97;;
75450;SDS011;64029;48.244;9.188;2023-06-10T07:06:58;8.67;;;7.83;;
75450;SDS011;64029;48.244;9.188;2023-06-10T07:09:25;8.90;;;7.30;;
75450;SDS011;64029;48.244;9.188;2023-06-10T07:11:53;8.53;;;7.37;;
75450;SDS011;64029;48.244;9.188;2023-06-10T07:14:20;8.10;;;7.30;;
75450;SDS011;64029;48.244;9.188;2023-06-10T07:16:46;8.77;;;7.87;;
75450;SDS011;64029;48.244;9.188;2023-06-10T07:19:14;10.90;;;8.10;;
75450;SDS011;64029;48.244;9.188;2023-06-10T07:21:42;8.30;;;7.50;;
75450;SDS011;64029;48.244;9.188;2023-06-10T07:24:09;9.37;;;8.47;;
75450;SDS011;64029;48.244;9.188;2023-06-10T07:26:36;7.47;;;6.67;;
75450;SDS011;64029;48.244;9.188;2023-06-10T07:29:03;10.17;;;7.93;;
75450;SDS011;64029;48.244;9.188;2023-06-10T07:31:30;10.23;;;8.30;;
75450;SDS011;64029;48.244;9.188;2023-06-10T07:33:57;8.30;;;7.50;;
75450;SDS011;64029;48.244;9.188;2023-06-10T07:36:23;9.93;;;7.50;;
75450;SDS011;64029;48.244;9.188;2023-06-10T07:38:53;7.50;;;6.50;;
75450;SDS011;64029;48.244;9.188;2023-06-10T07:41:22;7.67;;;6.97;;
75450;SDS011;64029;48.244;9.188;2023-06-10T07:43:50;8.40;;;7.53;;
75450;SDS011;64029;48.244;9.188;2023-06-10T07:46:19;9.97;;;7.40;;
75450;SDS011;64029;48.244;9.188;2023-06-10T07:48:47;8.80;;;7.90;;
75450;SDS011;64029;48.244;9.188;2023-06-10T07:51:14;9.57;;;7.47;;
75450;SDS011;64029;48.244;9.188;2023-06-10T07:53:41;9.50;;;7.23;;
75450;SDS011;64029;48.244;9.188;2023-06-10T07:56:10;9.23;;;7.27;;
75450;SDS011;64029;48.244;9.188;2023-06-10T07:58:37;7.43;;;6.77;;
75450;SDS011;64029;48.244;9.188;2023-06-10T08:01:04;7.20;;;6.60;;
75450;SDS011;64029;48.244;9.188;2023-06-10T08:03:30;7.70;;;6.93;;
75450;SDS011;64029;48.244;9.188;2023-06-10T08:05:57;7.90;;;7.20;;
75450;SDS011;64029;48.244;9.188;2023-06-10T08:08:24;7.93;;;6.80;;
75450;SDS011;64029;48.244;9.188;2023-06-10T08:10:51;8.00;;;7.30;;
75450;SDS011;64029;48.244;9.188;2023-06-10T08:13:19;7.13;;;6.53;;
75450;SDS011;64029;48.244;9.188;2023-06-10T08:15:47;8.00;;;7.23;;
75450;SDS011;64029;48.244;9.188;2023-06-10T08:18:15;7.03;;;6.40;;
75450;SDS011;64029;48.244;9.188;2023-06-10T08:20:42;8.07;;;7.17;;
75450;SDS011;64029;48.244;9.188;2023-06-10T08:23:09;8.00;;;7.03;;
75450;SDS011;64029;48.244;9.188;2023-06-10T08:25:36;8.63;;;6.77;;
75450;SDS011;64029;48.244;9.188;2023-06-10T08:28:03;7.17;;;6.57;;
75450;SDS011;64029;48.244;9.188;2023-06-10T08:30:31;7.93;;;7.13;;
75450;SDS011;64029;48.244;9.188;2023-06-10T08:32:58;7.60;;;6.23;;
75450;SDS011;64029;48.244;9.188;2023-06-10T08:35:25;6.70;;;6.13;;
75450;SDS011;64029;48.244;9.188;2023-06-10T08:37:52;7.33;;;6.03;;
75450;SDS011;64029;48.244;9.188;2023-06-10T08:40:19;7.57;;;6.80;;
75450;SDS011;64029;48.244;9.188;2023-06-10T08:42:48;6.87;;;6.20;;
75450;SDS011;64029;48.244;9.188;2023-06-10T08:45:20;8.23;;;5.70;;
75450;SDS011;64029;48.244;9.188;2023-06-10T08:47:50;6.93;;;6.30;;
75450;SDS011;64029;48.244;9.188;2023-06-10T08:50:18;6.70;;;6.10;;
75450;SDS011;64029;48.244;9.188;2023-06-10T08:52:46;8.10;;;6.17;;
75450;SDS011;64029;48.244;9.188;2023-06-10T08:55:18;6.00;;;5.40;;
75450;SDS011;64029;48.244;9.188;2023-06-10T08:57:51;6.60;;;5.83;;
75450;SDS011;64029;48.244;9.188;2023-06-10T09:00:18;5.60;;;5.03;;
75450;SDS011;64029;48.244;9.188;2023-06-10T09:02:45;5.83;;;5.33;;
75450;SDS011;64029;48.244;9.188;2023-06-10T09:05:14;5.40;;;5.00;;
75450;SDS011;64029;48.244;9.188;2023-06-10T09:07:41;5.70;;;4.80;;
75450;SDS011;64029;48.244;9.188;2023-06-10T09:10:09;5.13;;;4.63;;
75450;SDS011;64029;48.244;9.188;2023-06-10T09:12:37;10.70;;;5.37;;
75450;SDS011;64029;48.244;9.188;2023-06-10T09:15:04;7.23;;;5.30;;
75450;SDS011;64029;48.244;9.188;2023-06-10T09:17:32;6.60;;;4.90;;
75450;SDS011;64029;48.244;9.188;2023-06-10T09:20:01;5.60;;;5.10;;
75450;SDS011;64029;48.244;9.188;2023-06-10T09:22:29;5.20;;;4.80;;
75450;SDS011;64029;48.244;9.188;2023-06-10T09:25:02;9.17;;;4.53;;
75450;SDS011;64029;48.244;9.188;2023-06-10T09:27:30;7.13;;;4.50;;
75450;SDS011;64029;48.244;9.188;2023-06-10T09:29:58;5.43;;;4.93;;
75450;SDS011;64029;48.244;9.188;2023-06-10T09:32:24;20.43;;;5.80;;
75450;SDS011;64029;48.244;9.188;2023-06-10T09:34:52;10.90;;;4.97;;
75450;SDS011;64029;48.244;9.188;2023-06-10T09:37:19;14.60;;;4.37;;
75450;SDS011;64029;48.244;9.188;2023-06-10T09:40:01;12.07;;;4.70;;
75450;SDS011;64029;48.244;9.188;2023-06-10T09:42:32;4.37;;;3.97;;
75450;SDS011;64029;48.244;9.188;2023-06-10T09:45:00;5.30;;;4.60;;
75450;SDS011;64029;48.244;9.188;2023-06-10T09:47:26;5.33;;;4.40;;
75450;SDS011;64029;48.244;9.188;2023-06-10T09:49:54;5.23;;;4.73;;
75450;SDS011;64029;48.244;9.188;2023-06-10T09:52:21;4.23;;;3.90;;
75450;SDS011;64029;48.244;9.188;2023-06-10T09:54:49;4.20;;;3.80;;
75450;SDS011;64029;48.244;9.188;2023-06-10T09:57:18;5.30;;;3.93;;
75450;SDS011;64029;48.244;9.188;2023-06-10T09:59:45;5.33;;;4.20;;
75450;SDS011;64029;48.244;9.188;2023-06-10T10:02:13;4.23;;;3.93;;
75450;SDS011;64029;48.244;9.188;2023-06-10T10:04:41;3.93;;;3.63;;
75450;SDS011;64029;48.244;9.188;2023-06-10T10:07:08;6.13;;;4.03;;
75450;SDS011;64029;48.244;9.188;2023-06-10T10:09:35;3.93;;;3.63;;
75450;SDS011;64029;48.244;9.188;2023-06-10T10:12:03;5.20;;;4.10;;
75450;SDS011;64029;48.244;9.188;2023-06-10T10:14:37;3.80;;;3.50;;
75450;SDS011;64029;48.244;9.188;2023-06-10T10:17:05;30.47;;;6.80;;
75450;SDS011;64029;48.244;9.188;2023-06-10T10:19:37;6.60;;;3.60;;
75450;SDS011;64029;48.244;9.188;2023-06-10T10:22:15;9.20;;;4.00;;
75450;SDS011;64029;48.244;9.188;2023-06-10T10:24:46;5.60;;;4.00;;
75450;SDS011;64029;48.244;9.188;2023-06-10T10:27:17;3.90;;;3.60;;
75450;SDS011;64029;48.244;9.188;2023-06-10T10:29:54;4.37;;;3.80;;
75450;SDS011;64029;48.244;9.188;2023-06-10T10:32:24;4.00;;;3.70;;
75450;SDS011;64029;48.244;9.188;2023-06-10T10:34:57;4.60;;;3.87;;
75450;SDS011;64029;48.244;9.188;2023-06-10T10:37:33;4.70;;;4.27;;
75450;SDS011;64029;48.244;9.188;2023-06-10T10:40:01;6.57;;;3.80;;
75450;SDS011;64029;48.244;9.188;2023-06-10T10:42:30;4.67;;;4.27;;
75450;SDS011;64029;48.244;9.188;2023-06-10T10:44:58;5.30;;;4.80;;
75450;SDS011;64029;48.244;9.188;2023-06-10T10:47:40;4.47;;;3.93;;
75450;SDS011;64029;48.244;9.188;2023-06-10T10:50:13;5.33;;;4.80;;
75450;SDS011;64029;48.244;9.188;2023-06-10T10:52:51;5.10;;;4.63;;
75450;SDS011;64029;48.244;9.188;2023-06-10T10:55:21;4.60;;;4.20;;
75450;SDS011;64029;48.244;9.188;2023-06-10T10:57:54;5.70;;;4.80;;
75450;SDS011;64029;48.244;9.188;2023-06-10T11:00:30;4.50;;;4.13;;
75450;SDS011;64029;48.244;9.188;2023-06-10T11:02:58;5.80;;;5.03;;
75450;SDS011;64029;48.244;9.188;2023-06-10T11:05:31;5.73;;;5.07;;
75450;SDS011;64029;48.244;9.188;2023-06-10T11:14:49;5.23;;;4.53;;
75450;SDS011;64029;48.244;9.188;2023-06-10T11:17:25;5.57;;;5.07;;
75450;SDS011;64029;48.244;9.188;2023-06-10T11:19:52;5.93;;;5.33;;
75450;SDS011;64029;48.244;9.188;2023-06-10T11:22:23;9.40;;;5.40;;
75450;SDS011;64029;48.244;9.188;2023-06-10T11:24:50;5.87;;;5.30;;
75450;SDS011;64029;48.244;9.188;2023-06-10T11:27:18;6.40;;;5.80;;
75450;SDS011;64029;48.244;9.188;2023-06-10T11:29:58;6.60;;;5.90;;
75450;SDS011;64029;48.244;9.188;2023-06-10T11:32:46;7.63;;;5.70;;
75450;SDS011;64029;48.244;9.188;2023-06-10T11:35:18;6.47;;;5.83;;
75450;SDS011;64029;48.244;9.188;2023-06-10T11:37:48;7.10;;;6.50;;
75450;SDS011;64029;48.244;9.188;2023-06-10T11:40:16;5.80;;;5.30;;
75450;SDS011;64029;48.244;9.188;2023-06-10T11:42:43;7.43;;;6.60;;
75450;SDS011;64029;48.244;9.188;2023-06-10T11:45:14;6.30;;;5.80;;
75450;SDS011;64029;48.244;9.188;2023-06-10T11:47:56;6.60;;;6.00;;
75450;SDS011;64029;48.244;9.188;2023-06-10T11:50:30;6.60;;;5.97;;
75450;SDS011;64029;48.244;9.188;2023-06-10T11:52:57;5.97;;;5.40;;
75450;SDS011;64029;48.244;9.188;2023-06-10T11:55:24;6.13;;;4.90;;
75450;SDS011;64029;48.244;9.188;2023-06-10T11:57:52;6.43;;;5.87;;
75450;SDS011;64029;48.244;9.188;2023-06-10T12:00:22;5.50;;;5.00;;
75450;SDS011;64029;48.244;9.188;2023-06-10T12:02:56;5.30;;;4.80;;
75450;SDS011;64029;48.244;9.188;2023-06-10T12:05:23;5.27;;;4.77;;
75450;SDS011;64029;48.244;9.188;2023-06-10T12:10:39;5.60;;;5.10;;
75450;SDS011;64029;48.244;9.188;2023-06-10T12:13:07;5.90;;;5.30;;
75450;SDS011;64029;48.244;9.188;2023-06-10T12:15:35;4.37;;;4.03;;
75450;SDS011;64029;48.244;9.188;2023-06-10T12:18:03;5.97;;;4.70;;
75450;SDS011;64029;48.244;9.188;2023-06-10T12:20:31;5.00;;;4.57;;
75450;SDS011;64029;48.244;9.188;2023-06-10T12:22:59;5.47;;;4.97;;
75450;SDS011;64029;48.244;9.188;2023-06-10T12:25:34;5.07;;;4.67;;
75450;SDS011;64029;48.244;9.188;2023-06-10T12:28:02;5.60;;;5.20;;
75450;SDS011;64029;48.244;9.188;2023-06-10T12:30:29;5.50;;;4.90;;
75450;SDS011;64029;48.244;9.188;2023-06-10T12:32:57;8.10;;;7.40;;
75450;SDS011;64029;48.244;9.188;2023-06-10T12:35:25;6.20;;;5.60;;
75450;SDS011;64029;48.244;9.188;2023-06-10T12:37:57;8.40;;;5.27;;
75450;SDS011;64029;48.244;9.188;2023-06-10T12:40:26;7.30;;;6.13;;
75450;SDS011;64029;48.244;9.188;2023-06-10T12:42:54;6.23;;;5.63;;
75450;SDS011;64029;48.244;9.188;2023-06-10T12:45:27;7.57;;;6.90;;
75450;SDS011;64029;48.244;9.188;2023-06-10T12:48:04;6.00;;;5.43;;
75450;SDS011;64029;48.244;9.188;2023-06-10T12:50:33;6.00;;;5.50;;
75450;SDS011;64029;48.244;9.188;2023-06-10T12:53:01;4.80;;;4.30;;
75450;SDS011;64029;48.244;9.188;2023-06-10T12:55:27;5.23;;;4.83;;
75450;SDS011;64029;48.244;9.188;2023-06-10T12:57:54;4.63;;;4.23;;
75450;SDS011;64029;48.244;9.188;2023-06-10T13:00:22;5.33;;;4.93;;
75450;SDS011;64029;48.244;9.188;2023-06-10T13:02:50;4.00;;;3.70;;
75450;SDS011;64029;48.244;9.188;2023-06-10T13:05:20;5.37;;;4.77;;
75450;SDS011;64029;48.244;9.188;2023-06-10T13:07:49;5.40;;;4.90;;
75450;SDS011;64029;48.244;9.188;2023-06-10T13:10:16;4.80;;;4.40;;
75450;SDS011;64029;48.244;9.188;2023-06-10T13:12:43;5.23;;;4.77;;
75450;SDS011;64029;48.244;9.188;2023-06-10T13:15:12;4.80;;;4.40;;
75450;SDS011;64029;48.244;9.188;2023-06-10T13:17:41;5.87;;;4.60;;
75450;SDS011;64029;48.244;9.188;2023-06-10T13:20:08;4.70;;;4.30;;
75450;SDS011;64029;48.244;9.188;2023-06-10T13:22:36;4.67;;;4.20;;
75450;SDS011;64029;48.244;9.188;2023-06-10T13:25:04;4.60;;;4.30;;
75450;SDS011;64029;48.244;9.188;2023-06-10T13:27:32;5.00;;;4.60;;
75450;SDS011;64029;48.244;9.188;2023-06-10T13:30:00;4.17;;;3.87;;
75450;SDS011;64029;48.244;9.188;2023-06-10T13:32:26;4.37;;;3.87;;
75450;SDS011;64029;48.244;9.188;2023-06-10T13:34:53;4.70;;;4.30;;
75450;SDS011;64029;48.244;9.188;2023-06-10T13:37:24;4.97;;;4.00;;
75450;SDS011;64029;48.244;9.188;2023-06-10T13:39:50;3.90;;;3.60;;
75450;SDS011;64029;48.244;9.188;2023-06-10T13:42:19;4.13;;;3.73;;
75450;SDS011;64029;48.244;9.188;2023-06-10T13:44:51;4.17;;;3.83;;
75450;SDS011;64029;48.244;9.188;2023-06-10T13:47:18;4.07;;;3.67;;
75450;SDS011;64029;48.244;9.188;2023-06-10T13:49:47;4.77;;;4.37;;
75450;SDS011;64029;48.244;9.188;2023-06-10T13:52:14;4.20;;;3.80;;
75450;SDS011;64029;48.244;9.188;2023-06-10T13:54:41;3.90;;;3.60;;
75450;SDS011;64029;48.244;9.188;2023-06-10T13:57:08;4.90;;;3.90;;
75450;SDS011;64029;48.244;9.188;2023-06-10T13:59:37;4.30;;;3.60;;
75450;SDS011;64029;48.244;9.188;2023-06-10T14:02:04;4.40;;;4.00;;
75450;SDS011;64029;48.244;9.188;2023-06-10T14:04:31;6.40;;;4.10;;
75450;SDS011;64029;48.244;9.188;2023-06-10T14:06:58;3.80;;;3.40;;
75450;SDS011;64029;48.244;9.188;2023-06-10T14:09:29;4.73;;;4.03;;
75450;SDS011;64029;48.244;9.188;2023-06-10T14:11:56;6.03;;;4.00;;
75450;SDS011;64029;48.244;9.188;2023-06-10T14:14:22;6.50;;;3.87;;
75450;SDS011;64029;48.244;9.188;2023-06-10T14:16:53;6.80;;;5.30;;
75450;SDS011;64029;48.244;9.188;2023-06-10T14:19:23;7.10;;;4.80;;
75450;SDS011;64029;48.244;9.188;2023-06-10T14:21:50;6.10;;;5.50;;
75450;SDS011;64029;48.244;9.188;2023-06-10T14:24:18;6.50;;;5.90;;
75450;SDS011;64029;48.244;9.188;2023-06-10T14:26:47;7.40;;;5.27;;
75450;SDS011;64029;48.244;9.188;2023-06-10T14:29:17;6.00;;;5.50;;
75450;SDS011;64029;48.244;9.188;2023-06-10T14:31:47;6.63;;;4.67;;
75450;SDS011;64029;48.244;9.188;2023-06-10T14:34:15;5.47;;;4.70;;
75450;SDS011;64029;48.244;9.188;2023-06-10T14:36:42;5.80;;;4.87;;
75450;SDS011;64029;48.244;9.188;2023-06-10T14:39:09;9.60;;;5.33;;
75450;SDS011;64029;48.244;9.188;2023-06-10T14:41:36;12.83;;;7.03;;
75450;SDS011;64029;48.244;9.188;2023-06-10T14:44:03;14.83;;;8.10;;
75450;SDS011;64029;48.244;9.188;2023-06-10T14:46:30;10.73;;;8.03;;
75450;SDS011;64029;48.244;9.188;2023-06-10T14:48:57;10.70;;;8.50;;
75450;SDS011;64029;48.244;9.188;2023-06-10T14:51:25;10.47;;;8.87;;
75450;SDS011;64029;48.244;9.188;2023-06-10T14:53:52;8.93;;;8.00;;
75450;SDS011;64029;48.244;9.188;2023-06-10T14:56:19;7.83;;;6.60;;
75450;SDS011;64029;48.244;9.188;2023-06-10T14:58:48;10.87;;;6.63;;
75450;SDS011;64029;48.244;9.188;2023-06-10T15:01:15;9.40;;;7.30;;